PWSweather.com
Personal Weather Stations
Station Observations
INORDPAS37
Bondues, BonduesFR 59910

BonduesBonduesFR 59910

Lat: 50.7, Lon: 3.09

Elevation: 102

Station Type: Netatmo

http://bondues.meteoamikuze.com

High Low Average
Temperature 46.4°F8.0°C 38.8°F3.8°C 42.2°F5.7°C
Dew Point 37.4°F3.0°C 30.0°F-1.1°C 33.1°F0.6°C
Winds 3.1 mph 5.0 kmh 0.7 mph 1.1 kmh 2.0 mph WSW3.2 kmh WSW
Wind Gusts 8.1 mph13.0 kmh 1.8 mph2.9 kmh 4.0 mph6.4 kmh
Humidity 77% 74% 76%
Pressure 30.36 in1028.1 mb 29.92 in1013.2 mb -
Precipitation 0.00 in0.0 mm - -
Hour Temp Dew Point Humidity Winds Wind Gusts Pressure Precip Precip Rate Daily Precip Total
12:07 AM 43.3°F6.3°C 33.6°F0.9°C 74% 2.5 mph SW4.0 kmh SW 4.9 mph7.9 kmh 29.92 in1013.2 mb 0.00 in0.0 mm 0.00 in0.0 mm 0.00 in0.0 mm
12:27 AM 43.0°F6.1°C 33.3°F0.7°C 74% 2.5 mph SW4.0 kmh SW 6.9 mph11.1 kmh 29.93 in1013.5 mb 0.00 in0.0 mm 0.00 in0.0 mm 0.00 in0.0 mm
12:48 AM 42.8°F6.0°C 33.1°F0.6°C 74% 2.5 mph SW4.0 kmh SW 8.1 mph13.0 kmh 29.92 in1013.2 mb 0.00 in0.0 mm 0.00 in0.0 mm 0.00 in0.0 mm
01:07 AM 42.4°F5.8°C 32.9°F0.5°C 74% 1.8 mph SW2.9 kmh SW 4.3 mph6.9 kmh 29.93 in1013.5 mb 0.00 in0.0 mm 0.00 in0.0 mm 0.00 in0.0 mm
01:28 AM 42.3°F5.7°C 33.1°F0.6°C 75% 1.8 mph SW2.9 kmh SW 4.3 mph6.9 kmh 29.93 in1013.5 mb 0.00 in0.0 mm 0.00 in0.0 mm 0.00 in0.0 mm
01:47 AM 41.9°F5.5°C 32.7°F0.4°C 75% 2.5 mph SW4.0 kmh SW 4.3 mph6.9 kmh 29.93 in1013.5 mb 0.00 in0.0 mm 0.00 in0.0 mm 0.00 in0.0 mm
02:08 AM 41.7°F5.4°C 32.5°F0.3°C 75% 1.3 mph SW2.1 kmh SW 4.3 mph6.9 kmh 29.93 in1013.5 mb 0.00 in0.0 mm 0.00 in0.0 mm 0.00 in0.0 mm
02:28 AM 41.4°F5.2°C 32.2°F0.1°C 75% 1.8 mph SW2.9 kmh SW 3.8 mph6.1 kmh 29.92 in1013.2 mb 0.00 in0.0 mm 0.00 in0.0 mm 0.00 in0.0 mm
02:48 AM 41.2°F5.1°C 32.0°F0.0°C 75% 2.5 mph S4.0 kmh S 5.6 mph9.0 kmh 29.92 in1013.2 mb 0.00 in0.0 mm 0.00 in0.0 mm 0.00 in0.0 mm
03:09 AM 41.0°F5.0°C 31.8°F-0.1°C 75% 1.3 mph S2.1 kmh S 4.3 mph6.9 kmh 29.93 in1013.5 mb 0.00 in0.0 mm 0.00 in0.0 mm 0.00 in0.0 mm
03:28 AM 40.6°F4.8°C 31.5°F-0.3°C 75% 1.8 mph S2.9 kmh S 4.9 mph7.9 kmh 29.93 in1013.5 mb 0.00 in0.0 mm 0.00 in0.0 mm 0.00 in0.0 mm
03:49 AM 40.5°F4.7°C 31.3°F-0.4°C 75% 1.8 mph SW2.9 kmh SW 5.6 mph9.0 kmh 29.93 in1013.5 mb 0.00 in0.0 mm 0.00 in0.0 mm 0.00 in0.0 mm
04:09 AM 40.6°F4.8°C 31.5°F-0.3°C 75% 1.8 mph SW2.9 kmh SW 5.6 mph9.0 kmh 29.93 in1013.5 mb 0.00 in0.0 mm 0.00 in0.0 mm 0.00 in0.0 mm
04:35 AM 40.6°F4.8°C 31.5°F-0.3°C 75% 1.8 mph SW2.9 kmh SW 3.1 mph5.0 kmh 29.93 in1013.5 mb 0.00 in0.0 mm 0.00 in0.0 mm 0.00 in0.0 mm
04:55 AM 40.6°F4.8°C 31.5°F-0.3°C 75% 1.8 mph SW2.9 kmh SW 4.3 mph6.9 kmh 29.94 in1013.9 mb 0.00 in0.0 mm 0.00 in0.0 mm 0.00 in0.0 mm
05:15 AM 40.6°F4.8°C 31.5°F-0.3°C 75% 2.5 mph SW4.0 kmh SW 6.9 mph11.1 kmh 29.93 in1013.5 mb 0.00 in0.0 mm 0.00 in0.0 mm 0.00 in0.0 mm
05:35 AM 40.5°F4.7°C 31.3°F-0.4°C 75% 1.8 mph SSW2.9 kmh SSW 3.8 mph6.1 kmh 29.94 in1013.9 mb 0.00 in0.0 mm 0.00 in0.0 mm 0.00 in0.0 mm
05:55 AM 40.3°F4.6°C 31.1°F-0.5°C 75% 1.8 mph SW2.9 kmh SW 5.6 mph9.0 kmh 29.95 in1014.2 mb 0.00 in0.0 mm 0.00 in0.0 mm 0.00 in0.0 mm
06:15 AM 39.9°F4.4°C 30.7°F-0.7°C 75% 1.8 mph SSW2.9 kmh SSW 5.6 mph9.0 kmh 29.95 in1014.2 mb 0.00 in0.0 mm 0.00 in0.0 mm 0.00 in0.0 mm
06:35 AM 39.7°F4.3°C 30.9°F-0.6°C 76% 2.5 mph SW4.0 kmh SW 5.6 mph9.0 kmh 29.96 in1014.6 mb 0.00 in0.0 mm 0.00 in0.0 mm 0.00 in0.0 mm
06:55 AM 39.6°F4.2°C 30.7°F-0.7°C 76% 3.1 mph SW5.0 kmh SW 7.4 mph11.9 kmh 29.96 in1014.6 mb 0.00 in0.0 mm 0.00 in0.0 mm 0.00 in0.0 mm
07:15 AM 39.7°F4.3°C 30.9°F-0.6°C 76% 1.8 mph SSW2.9 kmh SSW 3.8 mph6.1 kmh 29.97 in1014.9 mb 0.00 in0.0 mm 0.00 in0.0 mm 0.00 in0.0 mm
07:21 AM 39.6°F4.2°C 30.7°F-0.7°C 76% 0.7 mph SSW1.1 kmh SSW 2.5 mph4.0 kmh 29.98 in1015.2 mb 0.00 in0.0 mm 0.00 in0.0 mm 0.00 in0.0 mm
07:55 AM 39.4°F4.1°C 30.6°F-0.8°C 76% 1.3 mph S2.1 kmh S 3.1 mph5.0 kmh 29.98 in1015.2 mb 0.00 in0.0 mm 0.00 in0.0 mm 0.00 in0.0 mm
08:01 AM 39.0°F3.9°C 30.2°F-1.0°C 76% 1.3 mph S2.1 kmh S 2.5 mph4.0 kmh 29.98 in1015.2 mb 0.00 in0.0 mm 0.00 in0.0 mm 0.00 in0.0 mm
08:35 AM 38.8°F3.8°C 30.0°F-1.1°C 76% 0.7 mph SW1.1 kmh SW 2.5 mph4.0 kmh 30.00 in1015.9 mb 0.00 in0.0 mm 0.00 in0.0 mm 0.00 in0.0 mm
08:41 AM 38.8°F3.8°C 30.0°F-1.1°C 76% 1.3 mph SSW2.1 kmh SSW 3.1 mph5.0 kmh 30.01 in1016.3 mb 0.00 in0.0 mm 0.00 in0.0 mm 0.00 in0.0 mm
09:01 AM 39.4°F4.1°C 30.6°F-0.8°C 76% 1.3 mph S2.1 kmh S 3.8 mph6.1 kmh 30.02 in1016.6 mb 0.00 in0.0 mm 0.00 in0.0 mm 0.00 in0.0 mm
09:21 AM 39.9°F4.4°C 31.1°F-0.5°C 76% 1.8 mph S2.9 kmh S 3.8 mph6.1 kmh 30.03 in1016.9 mb 0.00 in0.0 mm 0.00 in0.0 mm 0.00 in0.0 mm
09:42 AM 40.3°F4.6°C 31.5°F-0.3°C 76% 1.3 mph SW2.1 kmh SW 2.5 mph4.0 kmh 30.04 in1017.3 mb 0.00 in0.0 mm 0.00 in0.0 mm 0.00 in0.0 mm
10:01 AM 40.5°F4.7°C 31.6°F-0.2°C 76% 1.3 mph S2.1 kmh S 3.1 mph5.0 kmh 30.04 in1017.3 mb 0.00 in0.0 mm 0.00 in0.0 mm 0.00 in0.0 mm
10:22 AM 40.6°F4.8°C 31.8°F-0.1°C 76% 1.8 mph SW2.9 kmh SW 3.8 mph6.1 kmh 30.05 in1017.6 mb 0.00 in0.0 mm 0.00 in0.0 mm 0.00 in0.0 mm
10:41 AM 41.2°F5.1°C 32.4°F0.2°C 76% 1.8 mph SW2.9 kmh SW 4.3 mph6.9 kmh 30.06 in1017.9 mb 0.00 in0.0 mm 0.00 in0.0 mm 0.00 in0.0 mm
11:02 AM 41.7°F5.4°C 32.9°F0.5°C 76% 1.8 mph SW2.9 kmh SW 3.8 mph6.1 kmh 30.06 in1017.9 mb 0.00 in0.0 mm 0.00 in0.0 mm 0.00 in0.0 mm
11:22 AM 42.3°F5.7°C 33.8°F1.0°C 77% 1.8 mph SW2.9 kmh SW 4.3 mph6.9 kmh 30.07 in1018.3 mb 0.00 in0.0 mm 0.00 in0.0 mm 0.00 in0.0 mm
11:42 AM 42.6°F5.9°C 34.2°F1.2°C 77% 2.5 mph SW4.0 kmh SW 5.6 mph9.0 kmh 30.08 in1018.6 mb 0.00 in0.0 mm 0.00 in0.0 mm 0.00 in0.0 mm
12:03 PM 43.2°F6.2°C 34.7°F1.5°C 77% 2.5 mph SW4.0 kmh SW 4.9 mph7.9 kmh 30.09 in1019.0 mb 0.00 in0.0 mm 0.00 in0.0 mm 0.00 in0.0 mm
12:22 PM 43.9°F6.6°C 35.4°F1.9°C 77% 2.5 mph WSW4.0 kmh WSW 6.9 mph11.1 kmh 30.09 in1019.0 mb 0.00 in0.0 mm 0.00 in0.0 mm 0.00 in0.0 mm
12:43 PM 44.2°F6.8°C 35.6°F2.0°C 77% 2.5 mph SW4.0 kmh SW 5.6 mph9.0 kmh 30.09 in1019.0 mb 0.00 in0.0 mm 0.00 in0.0 mm 0.00 in0.0 mm
01:03 PM 44.8°F7.1°C 36.1°F2.3°C 77% 1.8 mph SW2.9 kmh SW 5.6 mph9.0 kmh 30.10 in1019.3 mb 0.00 in0.0 mm 0.00 in0.0 mm 0.00 in0.0 mm
01:23 PM 45.0°F7.2°C 36.0°F2.2°C 76% 2.5 mph WSW4.0 kmh WSW 5.6 mph9.0 kmh 30.10 in1019.3 mb 0.00 in0.0 mm 0.00 in0.0 mm 0.00 in0.0 mm
01:43 PM 45.0°F7.2°C 36.0°F2.2°C 76% 2.5 mph W4.0 kmh W 4.9 mph7.9 kmh 30.11 in1019.6 mb 0.00 in0.0 mm 0.00 in0.0 mm 0.00 in0.0 mm
02:03 PM 45.0°F7.2°C 36.0°F2.2°C 76% 2.5 mph W4.0 kmh W 4.9 mph7.9 kmh 30.11 in1019.6 mb 0.00 in0.0 mm 0.00 in0.0 mm 0.00 in0.0 mm
02:24 PM 45.1°F7.3°C 36.1°F2.3°C 76% 2.5 mph W4.0 kmh W 6.9 mph11.1 kmh 30.11 in1019.6 mb 0.00 in0.0 mm 0.00 in0.0 mm 0.00 in0.0 mm
02:44 PM 45.5°F7.5°C 36.5°F2.5°C 76% 1.3 mph W2.1 kmh W 3.1 mph5.0 kmh 30.12 in1020.0 mb 0.00 in0.0 mm 0.00 in0.0 mm 0.00 in0.0 mm
03:04 PM 45.7°F7.6°C 36.7°F2.6°C 76% 1.8 mph WNW2.9 kmh WNW 4.3 mph6.9 kmh 30.13 in1020.3 mb 0.00 in0.0 mm 0.00 in0.0 mm 0.00 in0.0 mm
03:24 PM 45.9°F7.7°C 36.9°F2.7°C 76% 0.7 mph W1.1 kmh W 1.8 mph2.9 kmh 30.13 in1020.3 mb 0.00 in0.0 mm 0.00 in0.0 mm 0.00 in0.0 mm
03:44 PM 46.2°F7.9°C 37.2°F2.9°C 76% 1.3 mph WSW2.1 kmh WSW 3.1 mph5.0 kmh 30.14 in1020.7 mb 0.00 in0.0 mm 0.00 in0.0 mm 0.00 in0.0 mm
04:04 PM 46.4°F8.0°C 37.4°F3.0°C 76% 1.3 mph W2.1 kmh W 2.5 mph4.0 kmh 30.16 in1021.3 mb 0.00 in0.0 mm 0.00 in0.0 mm 0.00 in0.0 mm
04:25 PM 46.2°F7.9°C 37.2°F2.9°C 76% 1.8 mph WNW2.9 kmh WNW 3.1 mph5.0 kmh 30.16 in1021.3 mb 0.00 in0.0 mm 0.00 in0.0 mm 0.00 in0.0 mm
04:45 PM 46.0°F7.8°C 36.7°F2.6°C 75% 0.7 mph W1.1 kmh W 2.5 mph4.0 kmh 30.16 in1021.3 mb 0.00 in0.0 mm 0.00 in0.0 mm 0.00 in0.0 mm
05:05 PM 45.9°F7.7°C 36.5°F2.5°C 75% 0.7 mph W1.1 kmh W 1.8 mph2.9 kmh 30.18 in1022.0 mb 0.00 in0.0 mm 0.00 in0.0 mm 0.00 in0.0 mm
05:25 PM 45.7°F7.6°C 36.3°F2.4°C 75% 1.3 mph NW2.1 kmh NW 2.5 mph4.0 kmh 30.19 in1022.4 mb 0.00 in0.0 mm 0.00 in0.0 mm 0.00 in0.0 mm
05:45 PM 45.3°F7.4°C 36.0°F2.2°C 75% 1.3 mph W2.1 kmh W 2.5 mph4.0 kmh 30.21 in1023.0 mb 0.00 in0.0 mm 0.00 in0.0 mm 0.00 in0.0 mm
06:05 PM 45.0°F7.2°C 35.6°F2.0°C 75% 1.3 mph NW2.1 kmh NW 2.5 mph4.0 kmh 30.22 in1023.4 mb 0.00 in0.0 mm 0.00 in0.0 mm 0.00 in0.0 mm
06:25 PM 44.6°F7.0°C 35.2°F1.8°C 75% 1.3 mph WNW2.1 kmh WNW 2.5 mph4.0 kmh 30.22 in1023.4 mb 0.00 in0.0 mm 0.00 in0.0 mm 0.00 in0.0 mm
06:46 PM 44.2°F6.8°C 34.9°F1.6°C 75% 1.8 mph WNW2.9 kmh WNW 4.3 mph6.9 kmh 30.24 in1024.0 mb 0.00 in0.0 mm 0.00 in0.0 mm 0.00 in0.0 mm
07:04 PM 43.7°F6.5°C 34.3°F1.3°C 75% 1.3 mph WNW2.1 kmh WNW 2.5 mph4.0 kmh 30.25 in1024.4 mb 0.00 in0.0 mm 0.00 in0.0 mm 0.00 in0.0 mm
07:23 PM 43.2°F6.2°C 33.8°F1.0°C 75% 1.3 mph NW2.1 kmh NW 2.5 mph4.0 kmh 30.26 in1024.7 mb 0.00 in0.0 mm 0.00 in0.0 mm 0.00 in0.0 mm
07:44 PM 42.4°F5.8°C 33.3°F0.7°C 75% 1.3 mph W2.1 kmh W 1.8 mph2.9 kmh 30.27 in1025.1 mb 0.00 in0.0 mm 0.00 in0.0 mm 0.00 in0.0 mm
08:04 PM 41.7°F5.4°C 32.5°F0.3°C 75% 0.7 mph W1.1 kmh W 1.8 mph2.9 kmh 30.28 in1025.4 mb 0.00 in0.0 mm 0.00 in0.0 mm 0.00 in0.0 mm
08:24 PM 41.0°F5.0°C 31.8°F-0.1°C 75% 0.7 mph W1.1 kmh W 1.8 mph2.9 kmh 30.29 in1025.7 mb 0.00 in0.0 mm 0.00 in0.0 mm 0.00 in0.0 mm
08:45 PM 40.5°F4.7°C 31.3°F-0.4°C 75% 1.3 mph W2.1 kmh W 2.5 mph4.0 kmh 30.30 in1026.1 mb 0.00 in0.0 mm 0.00 in0.0 mm 0.00 in0.0 mm
09:04 PM 40.6°F4.8°C 31.5°F-0.3°C 75% 1.8 mph WNW2.9 kmh WNW 4.9 mph7.9 kmh 30.32 in1026.8 mb 0.00 in0.0 mm 0.00 in0.0 mm 0.00 in0.0 mm
09:25 PM 40.8°F4.9°C 31.6°F-0.2°C 75% 1.8 mph WNW2.9 kmh WNW 4.3 mph6.9 kmh 30.32 in1026.8 mb 0.00 in0.0 mm 0.00 in0.0 mm 0.00 in0.0 mm
09:44 PM 41.0°F5.0°C 31.8°F-0.1°C 75% 0.7 mph NW1.1 kmh NW 1.8 mph2.9 kmh 30.32 in1026.8 mb 0.00 in0.0 mm 0.00 in0.0 mm 0.00 in0.0 mm
10:05 PM 41.0°F5.0°C 31.8°F-0.1°C 75% 0.7 mph W1.1 kmh W 1.8 mph2.9 kmh 30.33 in1027.1 mb 0.00 in0.0 mm 0.00 in0.0 mm 0.00 in0.0 mm
10:25 PM 41.2°F5.1°C 32.0°F0.0°C 75% 0.7 mph W1.1 kmh W 1.8 mph2.9 kmh 30.33 in1027.1 mb 0.00 in0.0 mm 0.00 in0.0 mm 0.00 in0.0 mm
10:45 PM 41.2°F5.1°C 32.0°F0.0°C 75% 0.7 mph W1.1 kmh W 1.8 mph2.9 kmh 30.34 in1027.4 mb 0.00 in0.0 mm 0.00 in0.0 mm 0.00 in0.0 mm
11:06 PM 41.2°F5.1°C 32.4°F0.2°C 76% 1.3 mph W2.1 kmh W 3.1 mph5.0 kmh 30.35 in1027.8 mb 0.00 in0.0 mm 0.00 in0.0 mm 0.00 in0.0 mm
11:25 PM 41.2°F5.1°C 32.4°F0.2°C 76% 1.3 mph W2.1 kmh W 3.1 mph5.0 kmh 30.35 in1027.8 mb 0.00 in0.0 mm 0.00 in0.0 mm 0.00 in0.0 mm
11:46 PM 41.0°F5.0°C 32.2°F0.1°C 76% 1.3 mph WSW2.1 kmh WSW 2.5 mph4.0 kmh 30.36 in1028.1 mb 0.00 in0.0 mm 0.00 in0.0 mm 0.00 in0.0 mm